OSDI/DAM METAR and TAF weather

Enter ICAO airport designator
Station Type Date Time Source
OSDI METAR 2022/12/04 13:00 UTC NOAA

OSDI 041300Z 02004KT CAVOK 17/03 Q1020


Station Type Date Time Source
OSDI Decoded METAR 2022/12/04 13:00 UTC NOAA

Damascus Int. Airport, Syria (OSDI) 33-25N 036-31E 609M
Dec 04, 2022 - 08:00 AM EST / 2022.12.04 1300 UTC
Wind: from the NNE (020 degrees) at 5 MPH (4 KT):0
Visibility: greater than 7 mile(s):0
Temperature: 62 F (17 C)
Dew Point: 37 F (3 C)
Relative Humidity: 39%
Pressure (altimeter): 30.12 in. Hg (1020 hPa)
ob: OSDI 041300Z 02004KT CAVOK 17/03 Q1020
cycle: 13

Station Type Date Time Source
OSDI TAF 2022/12/04 12:23 UTC NOAA

TAF OSDI 0412/0518 02005KT 7000 FEW026 SCT100

Example: see airport list